sensor_id;sensor_type;location;lat;lon;timestamp;P1;durP1;ratioP1;P2;durP2;ratioP2
1593;SDS011;790;47.000;16.084;2023-01-29T00:01:16;32.50;;;20.70;;
1593;SDS011;790;47.000;16.084;2023-01-29T00:03:43;30.77;;;20.93;;
1593;SDS011;790;47.000;16.084;2023-01-29T00:06:10;28.67;;;21.00;;
1593;SDS011;790;47.000;16.084;2023-01-29T00:08:38;30.60;;;19.70;;
1593;SDS011;790;47.000;16.084;2023-01-29T00:11:06;31.30;;;20.70;;
1593;SDS011;790;47.000;16.084;2023-01-29T00:13:34;27.40;;;18.80;;
1593;SDS011;790;47.000;16.084;2023-01-29T00:16:01;26.47;;;19.10;;
1593;SDS011;790;47.000;16.084;2023-01-29T00:18:29;32.57;;;21.47;;
1593;SDS011;790;47.000;16.084;2023-01-29T00:20:56;29.23;;;19.90;;
1593;SDS011;790;47.000;16.084;2023-01-29T00:23:23;30.03;;;19.90;;
1593;SDS011;790;47.000;16.084;2023-01-29T00:25:52;27.70;;;19.07;;
1593;SDS011;790;47.000;16.084;2023-01-29T00:28:20;26.83;;;19.23;;
1593;SDS011;790;47.000;16.084;2023-01-29T00:30:47;26.43;;;18.07;;
1593;SDS011;790;47.000;16.084;2023-01-29T00:33:14;30.27;;;18.43;;
1593;SDS011;790;47.000;16.084;2023-01-29T00:35:41;27.70;;;18.83;;
1593;SDS011;790;47.000;16.084;2023-01-29T00:38:08;24.27;;;17.23;;
1593;SDS011;790;47.000;16.084;2023-01-29T00:40:38;24.23;;;16.83;;
1593;SDS011;790;47.000;16.084;2023-01-29T00:43:24;26.23;;;17.23;;
1593;SDS011;790;47.000;16.084;2023-01-29T00:46:09;25.57;;;17.37;;
1593;SDS011;790;47.000;16.084;2023-01-29T00:48:36;24.70;;;16.33;;
1593;SDS011;790;47.000;16.084;2023-01-29T00:51:03;24.57;;;17.13;;
1593;SDS011;790;47.000;16.084;2023-01-29T00:53:30;25.03;;;17.80;;
1593;SDS011;790;47.000;16.084;2023-01-29T00:55:58;24.63;;;17.77;;
1593;SDS011;790;47.000;16.084;2023-01-29T00:58:26;24.97;;;17.60;;
1593;SDS011;790;47.000;16.084;2023-01-29T01:00:59;26.80;;;18.03;;
1593;SDS011;790;47.000;16.084;2023-01-29T01:03:27;27.80;;;18.53;;
1593;SDS011;790;47.000;16.084;2023-01-29T01:06:03;26.43;;;17.27;;
1593;SDS011;790;47.000;16.084;2023-01-29T01:08:31;26.13;;;16.93;;
1593;SDS011;790;47.000;16.084;2023-01-29T01:11:15;24.47;;;16.73;;
1593;SDS011;790;47.000;16.084;2023-01-29T01:13:44;26.87;;;18.03;;
1593;SDS011;790;47.000;16.084;2023-01-29T01:16:11;27.67;;;18.33;;
1593;SDS011;790;47.000;16.084;2023-01-29T01:18:39;24.63;;;17.33;;
1593;SDS011;790;47.000;16.084;2023-01-29T01:21:07;24.60;;;16.20;;
1593;SDS011;790;47.000;16.084;2023-01-29T01:23:34;24.93;;;16.37;;
1593;SDS011;790;47.000;16.084;2023-01-29T01:26:01;26.13;;;16.47;;
1593;SDS011;790;47.000;16.084;2023-01-29T01:28:33;20.13;;;13.20;;
1593;SDS011;790;47.000;16.084;2023-01-29T01:31:07;15.57;;;11.50;;
1593;SDS011;790;47.000;16.084;2023-01-29T01:33:35;15.33;;;10.80;;
1593;SDS011;790;47.000;16.084;2023-01-29T01:36:03;18.70;;;12.50;;
1593;SDS011;790;47.000;16.084;2023-01-29T01:38:34;17.87;;;11.93;;
1593;SDS011;790;47.000;16.084;2023-01-29T01:41:09;19.13;;;12.57;;
1593;SDS011;790;47.000;16.084;2023-01-29T01:43:46;17.03;;;11.83;;
1593;SDS011;790;47.000;16.084;2023-01-29T01:46:16;15.20;;;11.23;;
1593;SDS011;790;47.000;16.084;2023-01-29T01:48:43;18.23;;;11.93;;
1593;SDS011;790;47.000;16.084;2023-01-29T01:51:13;15.27;;;11.10;;
1593;SDS011;790;47.000;16.084;2023-01-29T01:53:42;13.60;;;9.83;;
1593;SDS011;790;47.000;16.084;2023-01-29T01:56:14;9.97;;;8.07;;
1593;SDS011;790;47.000;16.084;2023-01-29T01:58:45;12.20;;;9.13;;
1593;SDS011;790;47.000;16.084;2023-01-29T02:01:17;11.70;;;9.17;;
1593;SDS011;790;47.000;16.084;2023-01-29T02:03:53;10.23;;;7.87;;
1593;SDS011;790;47.000;16.084;2023-01-29T02:06:41;8.70;;;7.87;;
1593;SDS011;790;47.000;16.084;2023-01-29T02:09:28;11.63;;;9.43;;
1593;SDS011;790;47.000;16.084;2023-01-29T02:12:11;12.93;;;8.53;;
1593;SDS011;790;47.000;16.084;2023-01-29T02:14:41;13.33;;;9.50;;
1593;SDS011;790;47.000;16.084;2023-01-29T02:17:11;10.30;;;8.13;;
1593;SDS011;790;47.000;16.084;2023-01-29T02:19:42;11.80;;;9.10;;
1593;SDS011;790;47.000;16.084;2023-01-29T02:22:23;11.00;;;8.33;;
1593;SDS011;790;47.000;16.084;2023-01-29T02:25:02;10.93;;;8.17;;
1593;SDS011;790;47.000;16.084;2023-01-29T02:28:05;12.03;;;8.33;;
1593;SDS011;790;47.000;16.084;2023-01-29T02:30:49;10.90;;;7.97;;
1593;SDS011;790;47.000;16.084;2023-01-29T02:33:24;12.50;;;8.27;;
1593;SDS011;790;47.000;16.084;2023-01-29T02:35:58;10.57;;;8.33;;
1593;SDS011;790;47.000;16.084;2023-01-29T02:38:35;9.60;;;8.47;;
1593;SDS011;790;47.000;16.084;2023-01-29T02:41:11;12.63;;;9.00;;
1593;SDS011;790;47.000;16.084;2023-01-29T02:43:43;10.03;;;8.20;;
1593;SDS011;790;47.000;16.084;2023-01-29T02:46:15;11.47;;;8.27;;
1593;SDS011;790;47.000;16.084;2023-01-29T02:48:58;10.37;;;7.73;;
1593;SDS011;790;47.000;16.084;2023-01-29T02:51:33;10.20;;;8.13;;
1593;SDS011;790;47.000;16.084;2023-01-29T02:54:05;10.17;;;8.17;;
1593;SDS011;790;47.000;16.084;2023-01-29T02:56:38;11.87;;;8.13;;
1593;SDS011;790;47.000;16.084;2023-01-29T02:59:15;11.67;;;8.87;;
1593;SDS011;790;47.000;16.084;2023-01-29T03:01:47;12.47;;;9.43;;
1593;SDS011;790;47.000;16.084;2023-01-29T03:04:18;13.23;;;10.13;;
1593;SDS011;790;47.000;16.084;2023-01-29T03:06:49;10.23;;;9.07;;
1593;SDS011;790;47.000;16.084;2023-01-29T03:09:22;11.13;;;9.40;;
1593;SDS011;790;47.000;16.084;2023-01-29T03:11:58;12.67;;;9.77;;
1593;SDS011;790;47.000;16.084;2023-01-29T03:14:44;12.70;;;9.83;;
1593;SDS011;790;47.000;16.084;2023-01-29T03:17:32;11.27;;;9.23;;
1593;SDS011;790;47.000;16.084;2023-01-29T03:20:05;14.17;;;9.93;;
1593;SDS011;790;47.000;16.084;2023-01-29T03:22:37;11.73;;;8.97;;
1593;SDS011;790;47.000;16.084;2023-01-29T03:25:05;12.23;;;9.63;;
1593;SDS011;790;47.000;16.084;2023-01-29T03:27:52;15.70;;;10.63;;
1593;SDS011;790;47.000;16.084;2023-01-29T03:30:41;13.90;;;9.70;;
1593;SDS011;790;47.000;16.084;2023-01-29T03:33:31;12.23;;;9.67;;
1593;SDS011;790;47.000;16.084;2023-01-29T03:36:07;13.77;;;9.63;;
1593;SDS011;790;47.000;16.084;2023-01-29T03:38:38;10.97;;;9.07;;
1593;SDS011;790;47.000;16.084;2023-01-29T03:41:07;12.40;;;9.27;;
1593;SDS011;790;47.000;16.084;2023-01-29T03:43:43;13.17;;;9.40;;
1593;SDS011;790;47.000;16.084;2023-01-29T03:46:19;12.30;;;9.03;;
1593;SDS011;790;47.000;16.084;2023-01-29T03:48:54;11.97;;;9.37;;
1593;SDS011;790;47.000;16.084;2023-01-29T03:51:27;11.60;;;8.97;;
1593;SDS011;790;47.000;16.084;2023-01-29T03:54:01;12.77;;;8.97;;
1593;SDS011;790;47.000;16.084;2023-01-29T03:56:43;13.50;;;10.07;;
1593;SDS011;790;47.000;16.084;2023-01-29T03:59:22;12.20;;;9.03;;
1593;SDS011;790;47.000;16.084;2023-01-29T04:01:58;11.60;;;8.60;;
1593;SDS011;790;47.000;16.084;2023-01-29T04:04:29;13.70;;;8.97;;
1593;SDS011;790;47.000;16.084;2023-01-29T04:07:00;11.87;;;8.87;;
1593;SDS011;790;47.000;16.084;2023-01-29T04:09:35;11.77;;;8.93;;
1593;SDS011;790;47.000;16.084;2023-01-29T04:12:06;12.07;;;8.90;;
1593;SDS011;790;47.000;16.084;2023-01-29T04:14:35;10.97;;;8.40;;
1593;SDS011;790;47.000;16.084;2023-01-29T04:17:07;10.57;;;8.57;;
1593;SDS011;790;47.000;16.084;2023-01-29T04:19:40;12.53;;;7.97;;
1593;SDS011;790;47.000;16.084;2023-01-29T04:22:09;10.33;;;8.57;;
1593;SDS011;790;47.000;16.084;2023-01-29T04:24:40;12.20;;;9.17;;
1593;SDS011;790;47.000;16.084;2023-01-29T04:27:12;8.00;;;6.37;;
1593;SDS011;790;47.000;16.084;2023-01-29T04:29:56;10.73;;;7.93;;
1593;SDS011;790;47.000;16.084;2023-01-29T04:32:36;8.17;;;7.23;;
1593;SDS011;790;47.000;16.084;2023-01-29T04:35:15;7.93;;;6.60;;
1593;SDS011;790;47.000;16.084;2023-01-29T04:37:53;6.63;;;5.97;;
1593;SDS011;790;47.000;16.084;2023-01-29T04:40:29;5.40;;;4.90;;
1593;SDS011;790;47.000;16.084;2023-01-29T04:43:03;5.37;;;4.87;;
1593;SDS011;790;47.000;16.084;2023-01-29T04:45:36;5.40;;;4.90;;
1593;SDS011;790;47.000;16.084;2023-01-29T04:48:13;4.90;;;4.50;;
1593;SDS011;790;47.000;16.084;2023-01-29T04:50:51;5.30;;;4.57;;
1593;SDS011;790;47.000;16.084;2023-01-29T04:53:25;5.27;;;4.27;;
1593;SDS011;790;47.000;16.084;2023-01-29T04:55:57;5.40;;;4.60;;
1593;SDS011;790;47.000;16.084;2023-01-29T04:58:32;5.00;;;4.43;;
1593;SDS011;790;47.000;16.084;2023-01-29T05:01:04;4.63;;;4.23;;
1593;SDS011;790;47.000;16.084;2023-01-29T05:03:35;4.53;;;4.13;;
1593;SDS011;790;47.000;16.084;2023-01-29T05:06:05;4.57;;;4.17;;
1593;SDS011;790;47.000;16.084;2023-01-29T05:08:35;4.80;;;4.30;;
1593;SDS011;790;47.000;16.084;2023-01-29T05:11:04;4.83;;;4.33;;
1593;SDS011;790;47.000;16.084;2023-01-29T05:13:32;5.07;;;4.37;;
1593;SDS011;790;47.000;16.084;2023-01-29T05:16:03;5.93;;;4.80;;
1593;SDS011;790;47.000;16.084;2023-01-29T05:18:36;5.40;;;4.40;;
1593;SDS011;790;47.000;16.084;2023-01-29T05:21:05;5.70;;;5.20;;
1593;SDS011;790;47.000;16.084;2023-01-29T05:23:34;6.10;;;5.03;;
1593;SDS011;790;47.000;16.084;2023-01-29T05:26:02;5.10;;;4.60;;
1593;SDS011;790;47.000;16.084;2023-01-29T05:28:29;5.63;;;5.13;;
1593;SDS011;790;47.000;16.084;2023-01-29T05:30:56;6.07;;;4.67;;
1593;SDS011;790;47.000;16.084;2023-01-29T05:33:24;5.47;;;4.93;;
1593;SDS011;790;47.000;16.084;2023-01-29T05:35:53;4.90;;;4.43;;
1593;SDS011;790;47.000;16.084;2023-01-29T05:38:21;4.90;;;4.47;;
1593;SDS011;790;47.000;16.084;2023-01-29T05:40:48;4.97;;;4.50;;
1593;SDS011;790;47.000;16.084;2023-01-29T05:43:16;5.50;;;4.90;;
1593;SDS011;790;47.000;16.084;2023-01-29T05:45:50;5.20;;;4.70;;
1593;SDS011;790;47.000;16.084;2023-01-29T05:48:18;5.43;;;4.90;;
1593;SDS011;790;47.000;16.084;2023-01-29T05:50:45;5.40;;;4.90;;
1593;SDS011;790;47.000;16.084;2023-01-29T05:53:14;5.27;;;4.77;;
1593;SDS011;790;47.000;16.084;2023-01-29T05:55:42;5.10;;;4.57;;
1593;SDS011;790;47.000;16.084;2023-01-29T05:58:09;5.30;;;4.80;;
1593;SDS011;790;47.000;16.084;2023-01-29T06:00:38;5.17;;;4.67;;
1593;SDS011;790;47.000;16.084;2023-01-29T06:03:06;5.00;;;4.50;;
1593;SDS011;790;47.000;16.084;2023-01-29T06:05:36;4.80;;;4.40;;
1593;SDS011;790;47.000;16.084;2023-01-29T06:08:03;5.20;;;4.70;;
1593;SDS011;790;47.000;16.084;2023-01-29T06:10:33;5.83;;;4.93;;
1593;SDS011;790;47.000;16.084;2023-01-29T06:13:00;5.53;;;5.03;;
1593;SDS011;790;47.000;16.084;2023-01-29T06:15:27;6.93;;;5.60;;
1593;SDS011;790;47.000;16.084;2023-01-29T06:17:54;5.43;;;4.93;;
1593;SDS011;790;47.000;16.084;2023-01-29T06:20:22;5.57;;;5.00;;
1593;SDS011;790;47.000;16.084;2023-01-29T06:22:49;5.13;;;4.47;;
1593;SDS011;790;47.000;16.084;2023-01-29T06:25:17;5.77;;;5.23;;
1593;SDS011;790;47.000;16.084;2023-01-29T06:27:45;5.50;;;5.00;;
1593;SDS011;790;47.000;16.084;2023-01-29T06:30:16;6.40;;;5.13;;
1593;SDS011;790;47.000;16.084;2023-01-29T06:32:43;5.07;;;4.57;;
1593;SDS011;790;47.000;16.084;2023-01-29T06:35:10;5.50;;;5.00;;
1593;SDS011;790;47.000;16.084;2023-01-29T06:37:37;5.93;;;5.37;;
1593;SDS011;790;47.000;16.084;2023-01-29T06:40:04;7.43;;;5.80;;
1593;SDS011;790;47.000;16.084;2023-01-29T06:42:33;5.13;;;4.73;;
1593;SDS011;790;47.000;16.084;2023-01-29T06:45:02;5.80;;;5.30;;
1593;SDS011;790;47.000;16.084;2023-01-29T06:47:29;6.27;;;4.87;;
1593;SDS011;790;47.000;16.084;2023-01-29T06:49:57;6.73;;;5.90;;
1593;SDS011;790;47.000;16.084;2023-01-29T06:52:24;9.13;;;7.40;;
1593;SDS011;790;47.000;16.084;2023-01-29T06:54:53;6.07;;;5.37;;
1593;SDS011;790;47.000;16.084;2023-01-29T06:57:20;5.80;;;5.30;;
1593;SDS011;790;47.000;16.084;2023-01-29T06:59:48;5.47;;;4.97;;
1593;SDS011;790;47.000;16.084;2023-01-29T07:02:17;5.37;;;4.87;;
1593;SDS011;790;47.000;16.084;2023-01-29T07:04:44;5.90;;;5.00;;
1593;SDS011;790;47.000;16.084;2023-01-29T07:07:11;5.20;;;4.70;;
1593;SDS011;790;47.000;16.084;2023-01-29T07:09:38;5.40;;;4.90;;
1593;SDS011;790;47.000;16.084;2023-01-29T07:12:06;5.40;;;4.93;;
1593;SDS011;790;47.000;16.084;2023-01-29T07:14:34;6.37;;;4.90;;
1593;SDS011;790;47.000;16.084;2023-01-29T07:17:01;5.17;;;4.67;;
1593;SDS011;790;47.000;16.084;2023-01-29T07:19:29;5.73;;;4.77;;
1593;SDS011;790;47.000;16.084;2023-01-29T07:21:56;5.23;;;4.73;;
1593;SDS011;790;47.000;16.084;2023-01-29T07:24:26;5.73;;;5.13;;
1593;SDS011;790;47.000;16.084;2023-01-29T07:26:53;5.63;;;5.13;;
1593;SDS011;790;47.000;16.084;2023-01-29T07:29:20;5.40;;;4.90;;
1593;SDS011;790;47.000;16.084;2023-01-29T07:31:48;4.97;;;4.50;;
1593;SDS011;790;47.000;16.084;2023-01-29T07:34:15;4.57;;;4.10;;
1593;SDS011;790;47.000;16.084;2023-01-29T07:36:43;4.73;;;4.33;;
1593;SDS011;790;47.000;16.084;2023-01-29T07:39:10;4.83;;;4.43;;
1593;SDS011;790;47.000;16.084;2023-01-29T07:41:37;4.93;;;4.43;;
1593;SDS011;790;47.000;16.084;2023-01-29T07:44:05;5.97;;;5.17;;
1593;SDS011;790;47.000;16.084;2023-01-29T07:46:32;5.90;;;4.73;;
1593;SDS011;790;47.000;16.084;2023-01-29T07:48:59;5.53;;;5.03;;
1593;SDS011;790;47.000;16.084;2023-01-29T07:51:26;5.60;;;5.07;;
1593;SDS011;790;47.000;16.084;2023-01-29T07:53:55;5.47;;;4.97;;
1593;SDS011;790;47.000;16.084;2023-01-29T07:56:22;5.03;;;4.63;;
1593;SDS011;790;47.000;16.084;2023-01-29T07:58:49;4.90;;;4.50;;
1593;SDS011;790;47.000;16.084;2023-01-29T08:01:17;5.50;;;5.00;;
1593;SDS011;790;47.000;16.084;2023-01-29T08:03:44;5.17;;;4.63;;
1593;SDS011;790;47.000;16.084;2023-01-29T08:06:10;5.47;;;4.97;;
1593;SDS011;790;47.000;16.084;2023-01-29T08:08:38;6.03;;;5.43;;
1593;SDS011;790;47.000;16.084;2023-01-29T08:11:07;5.23;;;4.73;;
1593;SDS011;790;47.000;16.084;2023-01-29T08:13:34;6.00;;;5.43;;
1593;SDS011;790;47.000;16.084;2023-01-29T08:16:01;6.57;;;4.97;;
1593;SDS011;790;47.000;16.084;2023-01-29T08:18:29;6.70;;;5.33;;
1593;SDS011;790;47.000;16.084;2023-01-29T08:20:59;7.43;;;6.70;;
1593;SDS011;790;47.000;16.084;2023-01-29T08:23:27;6.53;;;5.47;;
1593;SDS011;790;47.000;16.084;2023-01-29T08:25:54;9.07;;;7.47;;
1593;SDS011;790;47.000;16.084;2023-01-29T08:28:22;6.57;;;5.90;;
1593;SDS011;790;47.000;16.084;2023-01-29T08:30:49;8.77;;;7.50;;
1593;SDS011;790;47.000;16.084;2023-01-29T08:33:17;9.60;;;6.60;;
1593;SDS011;790;47.000;16.084;2023-01-29T08:35:47;6.57;;;5.77;;
1593;SDS011;790;47.000;16.084;2023-01-29T08:38:15;6.40;;;5.80;;
1593;SDS011;790;47.000;16.084;2023-01-29T08:40:42;6.97;;;6.27;;
1593;SDS011;790;47.000;16.084;2023-01-29T08:43:10;11.90;;;9.47;;
1593;SDS011;790;47.000;16.084;2023-01-29T08:45:40;8.47;;;6.80;;
1593;SDS011;790;47.000;16.084;2023-01-29T08:48:08;8.47;;;6.07;;
1593;SDS011;790;47.000;16.084;2023-01-29T08:50:36;7.53;;;5.97;;
1593;SDS011;790;47.000;16.084;2023-01-29T08:53:04;8.03;;;7.23;;
1593;SDS011;790;47.000;16.084;2023-01-29T08:55:34;8.30;;;6.67;;
1593;SDS011;790;47.000;16.084;2023-01-29T08:58:02;6.77;;;5.93;;
1593;SDS011;790;47.000;16.084;2023-01-29T09:00:30;7.10;;;5.97;;
1593;SDS011;790;47.000;16.084;2023-01-29T09:02:59;7.00;;;5.70;;
1593;SDS011;790;47.000;16.084;2023-01-29T09:05:27;7.03;;;6.00;;
1593;SDS011;790;47.000;16.084;2023-01-29T09:07:55;6.13;;;5.53;;
1593;SDS011;790;47.000;16.084;2023-01-29T09:10:22;6.60;;;6.00;;
1593;SDS011;790;47.000;16.084;2023-01-29T09:12:49;6.43;;;5.73;;
1593;SDS011;790;47.000;16.084;2023-01-29T09:15:17;6.73;;;5.60;;
1593;SDS011;790;47.000;16.084;2023-01-29T09:17:44;7.80;;;6.53;;
1593;SDS011;790;47.000;16.084;2023-01-29T09:20:15;8.07;;;6.53;;
1593;SDS011;790;47.000;16.084;2023-01-29T09:22:42;9.80;;;7.07;;
1593;SDS011;790;47.000;16.084;2023-01-29T09:25:09;8.97;;;7.60;;
1593;SDS011;790;47.000;16.084;2023-01-29T09:27:37;7.57;;;5.70;;
1593;SDS011;790;47.000;16.084;2023-01-29T09:30:04;8.30;;;6.40;;
1593;SDS011;790;47.000;16.084;2023-01-29T09:32:32;6.47;;;5.83;;
1593;SDS011;790;47.000;16.084;2023-01-29T09:34:59;7.20;;;6.50;;
1593;SDS011;790;47.000;16.084;2023-01-29T09:37:28;6.93;;;5.87;;
1593;SDS011;790;47.000;16.084;2023-01-29T09:39:55;7.53;;;5.90;;
1593;SDS011;790;47.000;16.084;2023-01-29T09:42:23;6.27;;;5.77;;
1593;SDS011;790;47.000;16.084;2023-01-29T09:44:56;6.83;;;6.13;;
1593;SDS011;790;47.000;16.084;2023-01-29T09:47:28;6.20;;;5.67;;
1593;SDS011;790;47.000;16.084;2023-01-29T09:49:58;6.30;;;5.70;;
1593;SDS011;790;47.000;16.084;2023-01-29T09:52:31;10.37;;;8.10;;
1593;SDS011;790;47.000;16.084;2023-01-29T09:55:02;10.40;;;8.70;;
1593;SDS011;790;47.000;16.084;2023-01-29T09:57:33;8.83;;;7.47;;
1593;SDS011;790;47.000;16.084;2023-01-29T10:00:09;6.93;;;5.93;;
1593;SDS011;790;47.000;16.084;2023-01-29T10:02:48;10.97;;;8.47;;
1593;SDS011;790;47.000;16.084;2023-01-29T10:05:27;11.60;;;9.10;;
1593;SDS011;790;47.000;16.084;2023-01-29T10:11:16;30.97;;;19.87;;
1593;SDS011;790;47.000;16.084;2023-01-29T10:13:55;20.97;;;14.77;;
1593;SDS011;790;47.000;16.084;2023-01-29T10:16:33;25.97;;;18.93;;
1593;SDS011;790;47.000;16.084;2023-01-29T10:19:14;16.10;;;13.13;;
1593;SDS011;790;47.000;16.084;2023-01-29T10:22:02;25.47;;;18.07;;
1593;SDS011;790;47.000;16.084;2023-01-29T10:24:44;10.27;;;9.03;;
1593;SDS011;790;47.000;16.084;2023-01-29T10:27:19;12.07;;;10.73;;
1593;SDS011;790;47.000;16.084;2023-01-29T10:29:47;10.20;;;8.90;;
1593;SDS011;790;47.000;16.084;2023-01-29T10:32:20;8.47;;;7.23;;
1593;SDS011;790;47.000;16.084;2023-01-29T10:34:51;9.53;;;7.73;;
1593;SDS011;790;47.000;16.084;2023-01-29T10:37:22;7.70;;;6.87;;
1593;SDS011;790;47.000;16.084;2023-01-29T10:39:54;8.13;;;7.00;;
1593;SDS011;790;47.000;16.084;2023-01-29T10:42:25;8.03;;;6.47;;
1593;SDS011;790;47.000;16.084;2023-01-29T10:45:02;7.53;;;6.77;;
1593;SDS011;790;47.000;16.084;2023-01-29T10:51:00;7.67;;;6.70;;
1593;SDS011;790;47.000;16.084;2023-01-29T10:53:45;7.30;;;6.60;;
1593;SDS011;790;47.000;16.084;2023-01-29T10:56:33;8.87;;;6.77;;
1593;SDS011;790;47.000;16.084;2023-01-29T10:59:17;7.47;;;6.33;;
1593;SDS011;790;47.000;16.084;2023-01-29T11:01:58;17.60;;;12.60;;
1593;SDS011;790;47.000;16.084;2023-01-29T11:04:30;27.40;;;18.63;;
1593;SDS011;790;47.000;16.084;2023-01-29T11:06:58;14.73;;;10.83;;
1593;SDS011;790;47.000;16.084;2023-01-29T11:09:30;82.03;;;41.47;;
1593;SDS011;790;47.000;16.084;2023-01-29T11:12:08;49.17;;;25.47;;
1593;SDS011;790;47.000;16.084;2023-01-29T11:14:46;54.40;;;29.20;;
1593;SDS011;790;47.000;16.084;2023-01-29T11:17:20;118.37;;;62.23;;
1593;SDS011;790;47.000;16.084;2023-01-29T11:19:50;43.33;;;26.10;;
1593;SDS011;790;47.000;16.084;2023-01-29T11:22:23;17.37;;;12.33;;
1593;SDS011;790;47.000;16.084;2023-01-29T11:25:07;17.43;;;11.37;;
1593;SDS011;790;47.000;16.084;2023-01-29T11:27:48;16.90;;;11.20;;
1593;SDS011;790;47.000;16.084;2023-01-29T11:30:23;12.30;;;10.20;;
1593;SDS011;790;47.000;16.084;2023-01-29T11:32:59;14.40;;;11.40;;
1593;SDS011;790;47.000;16.084;2023-01-29T11:35:36;12.10;;;9.93;;
1593;SDS011;790;47.000;16.084;2023-01-29T11:38:08;22.53;;;17.17;;
1593;SDS011;790;47.000;16.084;2023-01-29T11:40:45;15.80;;;12.53;;
1593;SDS011;790;47.000;16.084;2023-01-29T11:43:27;12.40;;;11.10;;
1593;SDS011;790;47.000;16.084;2023-01-29T11:45:58;13.73;;;11.00;;
1593;SDS011;790;47.000;16.084;2023-01-29T11:48:44;10.63;;;9.17;;
1593;SDS011;790;47.000;16.084;2023-01-29T11:51:20;9.90;;;8.90;;
1593;SDS011;790;47.000;16.084;2023-01-29T11:53:53;10.60;;;9.07;;
1593;SDS011;790;47.000;16.084;2023-01-29T11:56:25;18.90;;;13.93;;
1593;SDS011;790;47.000;16.084;2023-01-29T11:58:57;44.70;;;25.97;;
1593;SDS011;790;47.000;16.084;2023-01-29T12:01:29;26.17;;;17.23;;
1593;SDS011;790;47.000;16.084;2023-01-29T12:04:00;12.50;;;9.57;;
1593;SDS011;790;47.000;16.084;2023-01-29T12:06:33;30.80;;;22.17;;
1593;SDS011;790;47.000;16.084;2023-01-29T12:09:08;17.00;;;13.60;;
1593;SDS011;790;47.000;16.084;2023-01-29T12:11:47;25.00;;;19.63;;
1593;SDS011;790;47.000;16.084;2023-01-29T12:17:03;19.60;;;14.73;;
1593;SDS011;790;47.000;16.084;2023-01-29T12:19:39;23.67;;;17.27;;
1593;SDS011;790;47.000;16.084;2023-01-29T12:22:13;11.67;;;9.43;;
1593;SDS011;790;47.000;16.084;2023-01-29T12:24:53;12.23;;;9.27;;
1593;SDS011;790;47.000;16.084;2023-01-29T12:27:26;12.77;;;10.37;;
1593;SDS011;790;47.000;16.084;2023-01-29T12:30:06;12.10;;;9.97;;
1593;SDS011;790;47.000;16.084;2023-01-29T12:32:42;13.30;;;10.63;;
1593;SDS011;790;47.000;16.084;2023-01-29T12:35:23;17.40;;;13.47;;
1593;SDS011;790;47.000;16.084;2023-01-29T12:38:07;16.20;;;14.07;;
1593;SDS011;790;47.000;16.084;2023-01-29T12:40:42;12.77;;;11.47;;
1593;SDS011;790;47.000;16.084;2023-01-29T12:43:34;10.50;;;9.17;;
1593;SDS011;790;47.000;16.084;2023-01-29T12:46:14;11.53;;;8.87;;
1593;SDS011;790;47.000;16.084;2023-01-29T12:48:49;29.60;;;21.27;;
1593;SDS011;790;47.000;16.084;2023-01-29T12:51:28;21.00;;;17.53;;
1593;SDS011;790;47.000;16.084;2023-01-29T12:54:04;17.23;;;13.47;;
1593;SDS011;790;47.000;16.084;2023-01-29T12:56:37;12.67;;;11.13;;
1593;SDS011;790;47.000;16.084;2023-01-29T12:59:11;11.93;;;9.57;;
1593;SDS011;790;47.000;16.084;2023-01-29T13:01:44;9.67;;;8.57;;
1593;SDS011;790;47.000;16.084;2023-01-29T13:04:16;11.90;;;10.60;;
1593;SDS011;790;47.000;16.084;2023-01-29T13:06:52;10.20;;;8.10;;
1593;SDS011;790;47.000;16.084;2023-01-29T13:09:25;11.93;;;7.67;;
1593;SDS011;790;47.000;16.084;2023-01-29T13:11:58;9.07;;;7.90;;
1593;SDS011;790;47.000;16.084;2023-01-29T13:14:30;8.90;;;7.70;;
1593;SDS011;790;47.000;16.084;2023-01-29T13:17:08;10.13;;;9.10;;
1593;SDS011;790;47.000;16.084;2023-01-29T13:19:39;10.43;;;9.33;;
1593;SDS011;790;47.000;16.084;2023-01-29T13:22:13;9.17;;;7.73;;
1593;SDS011;790;47.000;16.084;2023-01-29T13:24:43;10.30;;;8.40;;
1593;SDS011;790;47.000;16.084;2023-01-29T13:27:21;8.30;;;7.50;;
1593;SDS011;790;47.000;16.084;2023-01-29T13:29:51;9.87;;;8.27;;
1593;SDS011;790;47.000;16.084;2023-01-29T13:32:22;8.33;;;7.53;;
1593;SDS011;790;47.000;16.084;2023-01-29T13:34:53;9.30;;;8.27;;
1593;SDS011;790;47.000;16.084;2023-01-29T13:37:31;8.40;;;7.50;;
1593;SDS011;790;47.000;16.084;2023-01-29T13:40:00;8.83;;;7.93;;
1593;SDS011;790;47.000;16.084;2023-01-29T13:42:33;9.67;;;8.67;;
1593;SDS011;790;47.000;16.084;2023-01-29T13:45:06;11.07;;;8.20;;
1593;SDS011;790;47.000;16.084;2023-01-29T13:47:36;8.47;;;7.33;;
1593;SDS011;790;47.000;16.084;2023-01-29T13:50:05;10.17;;;7.60;;
1593;SDS011;790;47.000;16.084;2023-01-29T13:52:36;11.57;;;8.80;;
1593;SDS011;790;47.000;16.084;2023-01-29T13:55:08;11.27;;;9.50;;
1593;SDS011;790;47.000;16.084;2023-01-29T13:57:50;9.73;;;8.50;;
1593;SDS011;790;47.000;16.084;2023-01-29T14:06:42;10.03;;;7.97;;
1593;SDS011;790;47.000;16.084;2023-01-29T14:09:30;9.87;;;8.13;;
1593;SDS011;790;47.000;16.084;2023-01-29T14:12:45;10.27;;;8.43;;
1593;SDS011;790;47.000;16.084;2023-01-29T14:15:30;11.97;;;9.10;;
1593;SDS011;790;47.000;16.084;2023-01-29T14:18:02;10.57;;;8.33;;
1593;SDS011;790;47.000;16.084;2023-01-29T14:20:50;9.60;;;8.27;;
1593;SDS011;790;47.000;16.084;2023-01-29T14:23:28;11.93;;;8.97;;
1593;SDS011;790;47.000;16.084;2023-01-29T14:26:01;12.03;;;8.53;;
1593;SDS011;790;47.000;16.084;2023-01-29T14:28:31;10.70;;;8.57;;
1593;SDS011;790;47.000;16.084;2023-01-29T14:31:00;11.07;;;8.77;;
1593;SDS011;790;47.000;16.084;2023-01-29T14:33:30;10.53;;;8.50;;
1593;SDS011;790;47.000;16.084;2023-01-29T14:36:04;12.83;;;9.27;;
1593;SDS011;790;47.000;16.084;2023-01-29T14:38:34;11.73;;;9.17;;
1593;SDS011;790;47.000;16.084;2023-01-29T14:41:07;14.50;;;9.00;;
1593;SDS011;790;47.000;16.084;2023-01-29T14:43:40;10.40;;;9.03;;
1593;SDS011;790;47.000;16.084;2023-01-29T14:49:09;11.03;;;9.40;;
1593;SDS011;790;47.000;16.084;2023-01-29T14:51:39;10.57;;;8.57;;
1593;SDS011;790;47.000;16.084;2023-01-29T14:54:15;11.50;;;9.00;;
1593;SDS011;790;47.000;16.084;2023-01-29T14:56:51;13.03;;;9.10;;
1593;SDS011;790;47.000;16.084;2023-01-29T14:59:25;12.07;;;9.70;;
1593;SDS011;790;47.000;16.084;2023-01-29T15:01:59;9.30;;;8.30;;
1593;SDS011;790;47.000;16.084;2023-01-29T15:04:32;11.60;;;9.13;;
1593;SDS011;790;47.000;16.084;2023-01-29T15:07:06;9.73;;;8.53;;
1593;SDS011;790;47.000;16.084;2023-01-29T15:09:45;9.93;;;8.43;;
1593;SDS011;790;47.000;16.084;2023-01-29T15:12:16;11.60;;;9.30;;
1593;SDS011;790;47.000;16.084;2023-01-29T15:14:49;11.47;;;9.63;;
1593;SDS011;790;47.000;16.084;2023-01-29T15:17:25;9.83;;;8.67;;
1593;SDS011;790;47.000;16.084;2023-01-29T15:19:54;10.87;;;9.13;;
1593;SDS011;790;47.000;16.084;2023-01-29T15:22:23;9.90;;;8.90;;
1593;SDS011;790;47.000;16.084;2023-01-29T15:25:03;13.67;;;9.10;;
1593;SDS011;790;47.000;16.084;2023-01-29T15:27:33;10.57;;;9.40;;
1593;SDS011;790;47.000;16.084;2023-01-29T15:30:00;12.37;;;9.80;;
1593;SDS011;790;47.000;16.084;2023-01-29T15:32:31;12.43;;;9.60;;
1593;SDS011;790;47.000;16.084;2023-01-29T15:35:05;11.37;;;9.50;;
1593;SDS011;790;47.000;16.084;2023-01-29T15:37:36;11.30;;;8.60;;
1593;SDS011;790;47.000;16.084;2023-01-29T15:40:05;10.80;;;9.20;;
1593;SDS011;790;47.000;16.084;2023-01-29T15:42:43;12.80;;;9.30;;
1593;SDS011;790;47.000;16.084;2023-01-29T15:45:22;11.20;;;9.40;;
1593;SDS011;790;47.000;16.084;2023-01-29T15:47:53;11.10;;;8.50;;
1593;SDS011;790;47.000;16.084;2023-01-29T15:50:24;13.40;;;10.80;;
1593;SDS011;790;47.000;16.084;2023-01-29T15:52:52;15.87;;;10.70;;
1593;SDS011;790;47.000;16.084;2023-01-29T15:55:21;12.43;;;10.33;;